ROMMA est une association bénévole à but non lucratif. Votre soutien est indispensable : ADHERER à ROMMA ou FAIRE un DON

Trept - (38, Isère)

Plateau de Crémieu (265 m)   Longitude: 5° 19' 27" E   Latitude: 45° 41' 15"N Station partenaire n°94
 

Détail journalier du     <<     >>

Température Precipitation Humidité Pression Vent Dir Rafale Dir. rafale
Heure (°C) (mm) (%) (hPa) (km/h) (km/h)
01:00 16.306510161N5NNO
02:00 15.207010161NNO5NNO
03:00 15.207210161NNO8ONO
04:00 16.706710164NE19N
05:00 16.307110163NE18ONO
06:00 16.207210163NE18NNE
07:00 14.907910173NE13ONO
08:00 14.808810185NNE23NO
09:00 14.108710186NNE19NE
10:00 15.108810193NE16O
11:00 14.908410196NE24NE
12:00 15.808110207NNE24NNE
13:00 17.7066102010NNE31NNE
14:00 18.1059102012NNE35NNE
15:00 19.5051101913NNE35NE
16:00 19.2050101912NNE35NNE
17:00 20.2045101912NNE32NNE
18:00 19.6043101914NNE34NNE
19:00 19.2046101911NNE34NNE
20:00 17.705310199NNE24NE
21:00 16.705610208NNE26NE
22:00 16.305910209NNE26NNO
23:00 15.406310207NNE24N
minuit 14.806610208NNE26NE

Graphique du 05-09-2019

 

Serveur OMMA